Terminal Aerodrome Forecast
Issued by NWS

Home | Current Version | Previous Version | Text Only | Print | Product List | Glossary On
Versions: 1 2 3 4 5 6 7 8 9 10 11 12 13 14 15 16 17 18 19 20 21 22 23 24 25 26 27 28 29 30 31 32 33 34 35 36 37 38 39 40 41 42 43 44 45 46 47 48 49 50
000
FTUS43 KLOT 301953 AAA
TAFGYY
TAF AMD
KGYY 301953Z 3020/3118 25011G20KT P6SM SCT080 BKN250
     FM310000 21008KT P6SM BKN070
     FM310500 23016KT P6SM SCT100 WS017/25050KT
     FM310900 29012G18KT P6SM SCT010 SCT250
     FM311300 35011G17KT P6SM SCT010 SCT250=

USA.gov is the U.S. government's official web portal to all federal, state and local government web resources and services.